createdAt,value
2022-12-04T00:01:41.371Z,95.4
2022-12-04T00:04:41.439Z,95.4
2022-12-04T00:07:41.442Z,95.5
2022-12-04T00:10:41.431Z,95.5
2022-12-04T00:13:41.429Z,95.6
2022-12-04T00:16:41.471Z,95.7
2022-12-04T00:19:41.471Z,95.7
2022-12-04T00:22:41.475Z,95.7
2022-12-04T00:25:41.705Z,95.7
2022-12-04T00:28:41.535Z,95.8
2022-12-04T00:31:41.595Z,95.8
2022-12-04T00:34:41.549Z,95.9
2022-12-04T00:37:41.559Z,95.9
2022-12-04T00:40:41.582Z,95.9
2022-12-04T00:43:41.673Z,95.9
2022-12-04T00:46:41.639Z,95.9
2022-12-04T00:49:41.645Z,96
2022-12-04T00:52:41.654Z,96
2022-12-04T00:55:41.670Z,95.9
2022-12-04T00:58:41.680Z,95.9
2022-12-04T01:01:41.759Z,95.9
2022-12-04T01:04:41.741Z,95.9
2022-12-04T01:07:41.841Z,95.9
2022-12-04T01:10:41.735Z,95.9
2022-12-04T01:13:41.752Z,95.8
2022-12-04T01:16:41.830Z,95.7
2022-12-04T01:19:41.775Z,95.7
2022-12-04T01:22:41.805Z,95.7
2022-12-04T01:25:41.787Z,95.8
2022-12-04T01:28:41.799Z,95.7
2022-12-04T01:31:41.918Z,95.7
2022-12-04T01:34:41.823Z,95.7
2022-12-04T01:37:41.820Z,95.7
2022-12-04T01:40:41.850Z,95.6
2022-12-04T01:43:41.829Z,95.7
2022-12-04T01:46:41.843Z,95.6
2022-12-04T01:49:41.847Z,95.5
2022-12-04T01:52:41.841Z,95.5
2022-12-04T01:55:41.841Z,95.5
2022-12-04T01:58:41.874Z,95.4
2022-12-04T02:01:41.910Z,95.4
2022-12-04T02:04:41.870Z,95.3
2022-12-04T02:07:41.937Z,95.2
2022-12-04T02:10:41.867Z,95.2
2022-12-04T02:13:41.871Z,95.1
2022-12-04T02:16:41.919Z,95
2022-12-04T02:19:41.894Z,94.8
2022-12-04T02:22:41.893Z,94.8
2022-12-04T02:25:41.902Z,94.8
2022-12-04T02:28:41.918Z,94.7
2022-12-04T02:31:41.961Z,94.7
2022-12-04T02:34:41.991Z,94.7
2022-12-04T02:37:41.986Z,94.7
2022-12-04T02:40:41.982Z,94.7
2022-12-04T02:43:41.980Z,94.7
2022-12-04T02:46:41.980Z,94.7
2022-12-04T02:49:41.996Z,94.7
2022-12-04T02:52:42.009Z,94.7
2022-12-04T02:55:41.987Z,94.7
2022-12-04T02:58:41.990Z,94.7
2022-12-04T03:01:42.045Z,94.6
2022-12-04T03:04:42.017Z,94.6
2022-12-04T03:07:42.065Z,94.6
2022-12-04T03:10:42.019Z,94.6
2022-12-04T03:13:41.993Z,94.6
2022-12-04T03:16:42.053Z,94.6
2022-12-04T03:19:42.021Z,94.6
2022-12-04T03:22:41.990Z,94.6
2022-12-04T03:25:41.995Z,94.6
2022-12-04T03:28:42.028Z,94.7
2022-12-04T03:31:42.001Z,94.7
2022-12-04T03:34:42.005Z,94.7
2022-12-04T03:37:41.997Z,94.7
2022-12-04T03:40:42.001Z,94.7
2022-12-04T03:43:41.995Z,94.6
2022-12-04T03:46:42.027Z,94.6
2022-12-04T03:49:42.009Z,94.6
2022-12-04T03:52:42.002Z,94.6
2022-12-04T03:55:42.012Z,94.6
2022-12-04T03:58:42.004Z,94.6
2022-12-04T04:01:42.045Z,94.5
2022-12-04T04:04:42.046Z,94.5
2022-12-04T04:07:42.054Z,94.4
2022-12-04T04:10:42.006Z,94.4
2022-12-04T04:13:42.005Z,94.4
2022-12-04T04:16:42.009Z,94.4
2022-12-04T04:19:42.019Z,94.3
2022-12-04T04:22:42.037Z,94.3
2022-12-04T04:25:42.014Z,94.3
2022-12-04T04:28:42.023Z,94.3
2022-12-04T04:31:42.043Z,94.1
2022-12-04T04:34:42.023Z,94.2
2022-12-04T04:37:42.023Z,94.2
2022-12-04T04:40:42.055Z,94.2
2022-12-04T04:43:42.028Z,94.1
2022-12-04T04:46:42.117Z,94.1
2022-12-04T04:49:42.042Z,94.1
2022-12-04T04:52:42.033Z,94.1
2022-12-04T04:55:42.050Z,94
2022-12-04T04:58:42.070Z,94
2022-12-04T05:01:42.101Z,94
2022-12-04T05:04:42.054Z,94
2022-12-04T05:07:42.181Z,94
2022-12-04T05:10:42.054Z,94
2022-12-04T05:13:42.056Z,93.9
2022-12-04T05:16:42.126Z,93.9
2022-12-04T05:19:42.072Z,94
2022-12-04T05:22:42.088Z,94
2022-12-04T05:25:42.073Z,94
2022-12-04T05:28:42.078Z,93.9
2022-12-04T05:31:42.184Z,93.9
2022-12-04T05:34:42.122Z,93.9
2022-12-04T05:37:42.092Z,93.9
2022-12-04T05:40:42.096Z,93.9
2022-12-04T05:43:42.097Z,93.9
2022-12-04T05:46:42.356Z,93.9
2022-12-04T05:49:42.118Z,93.9
2022-12-04T05:52:42.146Z,93.9
2022-12-04T05:55:42.121Z,93.9
2022-12-04T05:58:42.119Z,93.8
2022-12-04T06:01:42.232Z,93.9
2022-12-04T06:04:42.158Z,93.9
2022-12-04T06:07:42.212Z,93.9
2022-12-04T06:10:42.179Z,93.9
2022-12-04T06:13:42.155Z,93.9
2022-12-04T06:16:42.217Z,94
2022-12-04T06:19:42.180Z,94
2022-12-04T06:22:42.184Z,94
2022-12-04T06:25:42.192Z,94
2022-12-04T06:28:42.224Z,94
2022-12-04T06:31:42.236Z,94
2022-12-04T06:34:42.227Z,94
2022-12-04T06:37:42.215Z,94
2022-12-04T06:40:42.218Z,94.1
2022-12-04T06:43:42.226Z,94.1
2022-12-04T06:46:46.662Z,94.1
2022-12-04T06:49:42.256Z,94.2
2022-12-04T06:52:42.240Z,94.2
2022-12-04T06:55:42.259Z,94.2
2022-12-04T06:58:42.259Z,94.2
2022-12-04T07:01:42.381Z,94.3
2022-12-04T07:04:42.316Z,94.4
2022-12-04T07:07:42.389Z,94.4
2022-12-04T07:10:42.281Z,94.5
2022-12-04T07:13:42.289Z,94.5
2022-12-04T07:16:42.627Z,94.6
2022-12-04T07:19:42.315Z,94.7
2022-12-04T07:22:42.330Z,94.6
2022-12-04T07:25:42.303Z,94.7
2022-12-04T07:28:42.311Z,94.8
2022-12-04T07:31:42.352Z,94.9
2022-12-04T07:34:42.333Z,95
2022-12-04T07:37:42.329Z,95.1
2022-12-04T07:40:42.359Z,95.1
2022-12-04T07:43:42.382Z,95.2
2022-12-04T07:46:42.346Z,95.2
2022-12-04T07:49:42.397Z,95.3
2022-12-04T07:52:42.348Z,95.3
2022-12-04T07:55:42.347Z,95.4
2022-12-04T07:58:42.387Z,95.5
2022-12-04T08:01:42.402Z,95.6
2022-12-04T08:04:42.440Z,95.6
2022-12-04T08:07:42.444Z,95.7
2022-12-04T08:10:42.382Z,95.7
2022-12-04T08:13:42.384Z,95.8
2022-12-04T08:16:42.466Z,95.8
2022-12-04T08:19:42.404Z,95.9
2022-12-04T08:22:42.389Z,95.9
2022-12-04T08:25:42.396Z,96
2022-12-04T08:28:42.403Z,96
2022-12-04T08:31:42.404Z,96
2022-12-04T08:34:42.451Z,96
2022-12-04T08:37:42.411Z,96.1
2022-12-04T08:40:42.413Z,96.1
2022-12-04T08:43:42.558Z,96.1
2022-12-04T08:46:42.498Z,96.1
2022-12-04T08:49:42.439Z,96.1
2022-12-04T08:52:42.458Z,96.2
2022-12-04T08:55:42.440Z,96.1
2022-12-04T08:58:42.450Z,96.1
2022-12-04T09:01:42.510Z,96.1
2022-12-04T09:04:42.526Z,96.1
2022-12-04T09:07:42.505Z,96.1
2022-12-04T09:10:42.501Z,96.1
2022-12-04T09:13:42.479Z,96.1
2022-12-04T09:16:42.477Z,96.2
2022-12-04T09:19:42.502Z,96.1
2022-12-04T09:23:02.663Z,96.2
2022-12-04T09:25:42.490Z,96.2
2022-12-04T09:28:42.521Z,96.2
2022-12-04T09:31:42.550Z,96.2
2022-12-04T09:34:42.517Z,96.2
2022-12-04T09:37:42.507Z,96.2
2022-12-04T09:40:42.513Z,96.2
2022-12-04T09:43:42.523Z,96.2
2022-12-04T09:46:42.715Z,96.2
2022-12-04T09:49:42.552Z,96.2
2022-12-04T09:52:42.546Z,96.2
2022-12-04T09:55:42.547Z,96.2
2022-12-04T09:58:42.548Z,96.2
2022-12-04T10:01:42.550Z,96.2
2022-12-04T10:04:42.603Z,96.2
2022-12-04T10:07:42.641Z,96.2
2022-12-04T10:10:42.579Z,96.2
2022-12-04T10:13:42.573Z,96.2
2022-12-04T10:16:42.573Z,96.2
2022-12-04T10:19:42.592Z,96.2
2022-12-04T10:22:42.603Z,96.2
2022-12-04T10:25:42.576Z,96.3
2022-12-04T10:28:42.591Z,96.3
2022-12-04T10:31:42.619Z,96.3
2022-12-04T10:34:45.724Z,96.4
2022-12-04T10:37:42.599Z,96.3
2022-12-04T10:40:42.632Z,96.3
2022-12-04T10:43:42.606Z,96.3
2022-12-04T10:46:45.853Z,96.4
2022-12-04T10:49:42.612Z,96.3
2022-12-04T10:52:42.613Z,96.4
2022-12-04T10:55:42.609Z,96.3
2022-12-04T10:58:42.654Z,96.3
2022-12-04T11:01:42.664Z,96.3
2022-12-04T11:04:42.640Z,96.3
2022-12-04T11:07:42.647Z,96.3
2022-12-04T11:10:42.638Z,96.3
2022-12-04T11:13:42.632Z,96.2
2022-12-04T11:16:42.751Z,96.2
2022-12-04T11:19:42.664Z,96.1
2022-12-04T11:22:42.649Z,96.2
2022-12-04T11:25:42.652Z,96.1
2022-12-04T11:28:43.070Z,96.1
2022-12-04T11:31:42.733Z,96.1
2022-12-04T11:34:42.707Z,96.1
2022-12-04T11:37:45.414Z,96.1
2022-12-04T11:40:42.674Z,96.1
2022-12-04T11:43:42.673Z,96.1
2022-12-04T11:46:42.709Z,96.1
2022-12-04T11:49:43.979Z,96.1
2022-12-04T11:52:42.724Z,96
2022-12-04T11:55:42.701Z,96.1
2022-12-04T11:58:43.705Z,96
2022-12-04T12:01:42.901Z,96.1
2022-12-04T12:04:42.724Z,96.1
2022-12-04T12:07:42.745Z,96.1
2022-12-04T12:10:44.739Z,96
2022-12-04T12:13:42.722Z,96.1
2022-12-04T12:16:45.727Z,96
2022-12-04T12:19:42.754Z,96.1
2022-12-04T12:22:42.740Z,96
2022-12-04T12:25:46.208Z,96.1
2022-12-04T12:28:42.784Z,96
2022-12-04T12:31:42.771Z,96
2022-12-04T12:34:42.789Z,96
2022-12-04T12:37:42.762Z,96
2022-12-04T12:40:42.772Z,95.9
2022-12-04T12:43:42.801Z,95.9
2022-12-04T12:46:42.812Z,96
2022-12-04T12:49:42.796Z,96
2022-12-04T12:52:42.800Z,96
2022-12-04T12:55:42.793Z,96
2022-12-04T12:58:42.797Z,96.1
2022-12-04T13:01:42.905Z,96.1
2022-12-04T13:04:42.849Z,96.1
2022-12-04T13:07:42.894Z,96.2
2022-12-04T13:10:42.808Z,96.3
2022-12-04T13:13:42.814Z,96.3
2022-12-04T13:16:42.902Z,96.4
2022-12-04T13:19:42.859Z,96.4
2022-12-04T13:22:42.857Z,96.4
2022-12-04T13:25:42.823Z,96.5
2022-12-04T13:28:42.832Z,96.5
2022-12-04T13:31:42.876Z,96.5
2022-12-04T13:34:42.846Z,96.5
2022-12-04T13:37:42.887Z,96.6
2022-12-04T13:40:42.927Z,96.6
2022-12-04T13:43:42.839Z,96.6
2022-12-04T13:46:42.846Z,96.7
2022-12-04T13:49:42.861Z,96.7
2022-12-04T13:52:42.873Z,96.7
2022-12-04T13:55:42.896Z,96.8
2022-12-04T13:58:42.926Z,96.8
2022-12-04T14:01:43.038Z,96.8
2022-12-04T14:04:42.927Z,96.9
2022-12-04T14:07:42.955Z,96.9
2022-12-04T14:10:42.919Z,96.9
2022-12-04T14:13:42.922Z,96.9
2022-12-04T14:16:43.005Z,97
2022-12-04T14:19:42.955Z,97
2022-12-04T14:22:42.952Z,97
2022-12-04T14:25:42.954Z,97
2022-12-04T14:28:42.958Z,97
2022-12-04T14:31:42.974Z,97
2022-12-04T14:34:43.013Z,97.1
2022-12-04T14:37:42.990Z,97.1
2022-12-04T14:40:42.988Z,97
2022-12-04T14:43:42.995Z,97
2022-12-04T14:46:43.085Z,97.1
2022-12-04T14:49:43.005Z,97
2022-12-04T14:52:43.037Z,97.1
2022-12-04T14:55:43.013Z,97.1
2022-12-04T14:58:43.019Z,97.1
2022-12-04T15:01:43.031Z,97.1
2022-12-04T15:04:43.094Z,97.1
2022-12-04T15:07:43.085Z,97.1
2022-12-04T15:10:43.059Z,97.1
2022-12-04T15:13:43.040Z,97.1
2022-12-04T15:16:43.051Z,97.1
2022-12-04T15:19:43.066Z,97.1
2022-12-04T15:22:43.066Z,97.1
2022-12-04T15:25:43.062Z,97.1
2022-12-04T15:28:43.092Z,97.1
2022-12-04T15:31:43.128Z,97.1
2022-12-04T15:34:43.079Z,97.1
2022-12-04T15:37:43.073Z,97.1
2022-12-04T15:40:43.074Z,97.2
2022-12-04T15:43:43.079Z,97.2
2022-12-04T15:46:43.161Z,97.2
2022-12-04T15:49:43.095Z,97.2
2022-12-04T15:52:43.093Z,97.2
2022-12-04T15:55:43.095Z,97.2
2022-12-04T15:58:43.096Z,97.2
2022-12-04T16:01:43.147Z,97.3
2022-12-04T16:04:45.534Z,97.3
2022-12-04T16:07:43.152Z,97.3
2022-12-04T16:10:43.129Z,97.3
2022-12-04T16:13:43.123Z,97.2
2022-12-04T16:16:43.131Z,97.3
2022-12-04T16:19:43.145Z,97.3
2022-12-04T16:22:43.163Z,97.3
2022-12-04T16:25:43.143Z,97.3
2022-12-04T16:28:43.148Z,97.3
2022-12-04T16:31:43.220Z,97.3
2022-12-04T16:34:43.167Z,97.4
2022-12-04T16:37:43.169Z,97.4
2022-12-04T16:40:43.194Z,97.4
2022-12-04T16:43:43.175Z,97.4
2022-12-04T16:46:43.191Z,97.4
2022-12-04T16:49:43.192Z,97.5
2022-12-04T16:52:43.189Z,97.5
2022-12-04T16:55:43.196Z,97.5
2022-12-04T16:58:43.227Z,97.5
2022-12-04T17:01:43.216Z,97.5
2022-12-04T17:04:43.217Z,97.6
2022-12-04T17:07:43.237Z,97.6
2022-12-04T17:10:43.211Z,97.5
2022-12-04T17:13:43.220Z,97.5
2022-12-04T17:16:43.308Z,97.6
2022-12-04T17:19:43.240Z,97.6
2022-12-04T17:22:43.236Z,97.6
2022-12-04T17:25:43.237Z,97.6
2022-12-04T17:28:43.248Z,97.6
2022-12-04T17:31:43.331Z,97.6
2022-12-04T17:34:43.292Z,97.6
2022-12-04T17:37:43.257Z,97.6
2022-12-04T17:40:43.265Z,97.6
2022-12-04T17:43:43.265Z,97.6
2022-12-04T17:46:43.326Z,97.5
2022-12-04T17:49:43.289Z,97.6
2022-12-04T17:52:43.305Z,97.6
2022-12-04T17:55:43.283Z,97.6
2022-12-04T17:58:43.293Z,97.6
2022-12-04T18:01:43.294Z,97.6
2022-12-04T18:04:43.314Z,97.6
2022-12-04T18:07:43.340Z,97.6
2022-12-04T18:10:43.336Z,97.6
2022-12-04T18:13:43.311Z,97.6
2022-12-04T18:16:43.401Z,97.6
2022-12-04T18:19:43.322Z,97.6
2022-12-04T18:22:43.319Z,97.6
2022-12-04T18:25:43.326Z,97.6
2022-12-04T18:28:43.358Z,97.7
2022-12-04T18:31:43.377Z,97.6
2022-12-04T18:34:43.352Z,97.7
2022-12-04T18:37:43.341Z,97.7
2022-12-04T18:40:43.345Z,97.7
2022-12-04T18:43:43.346Z,97.7
2022-12-04T18:46:43.381Z,97.7
2022-12-04T18:49:43.381Z,97.7
2022-12-04T18:52:43.358Z,97.7
2022-12-04T18:55:43.358Z,97.7
2022-12-04T18:58:43.369Z,97.7
2022-12-04T19:01:43.359Z,97.7
2022-12-04T19:04:43.407Z,97.7
2022-12-04T19:07:43.404Z,97.7
2022-12-04T19:10:43.367Z,97.7
2022-12-04T19:13:43.373Z,97.8
2022-12-04T19:16:43.435Z,97.7
2022-12-04T19:19:43.389Z,97.8
2022-12-04T19:22:43.403Z,97.7
2022-12-04T19:25:43.384Z,97.7
2022-12-04T19:28:43.387Z,97.7
2022-12-04T19:31:43.424Z,97.8
2022-12-04T19:34:43.400Z,97.8
2022-12-04T19:37:46.946Z,97.8
2022-12-04T19:40:43.426Z,97.8
2022-12-04T19:43:43.392Z,97.8
2022-12-04T19:46:43.396Z,97.8
2022-12-04T19:49:43.409Z,97.8
2022-12-04T19:52:43.404Z,97.8
2022-12-04T19:55:43.405Z,97.8
2022-12-04T19:58:43.450Z,97.8
2022-12-04T20:01:43.436Z,97.8
2022-12-04T20:04:43.433Z,97.8
2022-12-04T20:07:43.422Z,97.8
2022-12-04T20:10:43.408Z,97.8
2022-12-04T20:13:43.408Z,97.8
2022-12-04T20:16:43.563Z,97.8
2022-12-04T20:19:43.416Z,97.8
2022-12-04T20:22:43.411Z,97.8
2022-12-04T20:25:43.411Z,97.8
2022-12-04T20:28:43.411Z,97.8
2022-12-04T20:31:43.409Z,97.8
2022-12-04T20:34:44.114Z,97.8
2022-12-04T20:37:43.411Z,97.8
2022-12-04T20:40:43.421Z,97.8
2022-12-04T20:43:43.418Z,97.7
2022-12-04T20:46:43.522Z,97.7
2022-12-04T20:49:43.433Z,97.7
2022-12-04T20:52:43.449Z,97.7
2022-12-04T20:55:43.426Z,97.7
2022-12-04T20:58:43.426Z,97.7
2022-12-04T21:01:43.478Z,97.7
2022-12-04T21:04:43.445Z,97.6
2022-12-04T21:07:43.469Z,97.6
2022-12-04T21:10:43.465Z,97.7
2022-12-04T21:13:43.435Z,97.7
2022-12-04T21:16:43.438Z,97.7
2022-12-04T21:19:43.448Z,97.8
2022-12-04T21:22:43.443Z,97.7
2022-12-04T21:25:43.444Z,97.7
2022-12-04T21:28:43.473Z,97.7
2022-12-04T21:31:43.472Z,97.7
2022-12-04T21:34:43.453Z,97.8
2022-12-04T21:37:43.446Z,97.7
2022-12-04T21:40:43.450Z,97.8
2022-12-04T21:43:43.448Z,97.8
2022-12-04T21:46:43.565Z,97.8
2022-12-04T21:49:43.480Z,97.8
2022-12-04T21:52:43.457Z,97.9
2022-12-04T21:55:43.460Z,97.9
2022-12-04T21:58:43.463Z,97.9
2022-12-04T22:01:43.493Z,97.9
2022-12-04T22:04:43.499Z,97.9
2022-12-04T22:07:43.538Z,97.9
2022-12-04T22:10:43.467Z,97.9
2022-12-04T22:13:43.463Z,97.9
2022-12-04T22:16:43.719Z,97.9
2022-12-04T22:19:43.474Z,98
2022-12-04T22:22:43.493Z,98
2022-12-04T22:25:43.467Z,98
2022-12-04T22:28:43.470Z,98
2022-12-04T22:31:43.524Z,97.9
2022-12-04T22:34:43.482Z,98
2022-12-04T22:37:44.640Z,97.9
2022-12-04T22:40:43.501Z,97.9
2022-12-04T22:43:43.472Z,97.9
2022-12-04T22:46:43.494Z,97.9
2022-12-04T22:49:43.495Z,98
2022-12-04T22:52:43.477Z,97.9
2022-12-04T22:55:43.482Z,97.9
2022-12-04T22:58:43.507Z,97.9
2022-12-04T23:01:43.483Z,97.9
2022-12-04T23:04:43.580Z,97.8
2022-12-04T23:07:43.528Z,97.8
2022-12-04T23:10:43.485Z,97.8
2022-12-04T23:13:43.485Z,97.8
2022-12-04T23:16:43.604Z,97.8
2022-12-04T23:19:43.502Z,97.7
2022-12-04T23:22:43.493Z,97.7
2022-12-04T23:25:43.497Z,97.7
2022-12-04T23:28:43.491Z,97.7
2022-12-04T23:31:43.526Z,97.7
2022-12-04T23:34:43.537Z,97.7
2022-12-04T23:38:03.308Z,97.7
2022-12-04T23:41:03.318Z,97.7
2022-12-04T23:42:26.904Z,97.7
2022-12-04T23:44:29.388Z,97.7
2022-12-04T23:45:26.583Z,97.7
2022-12-04T23:48:24.741Z,97.7
2022-12-04T23:50:03.910Z,97.8
2022-12-04T23:51:42.908Z,97.8
2022-12-04T23:54:42.906Z,97.8
2022-12-04T23:56:39.999Z,97.8
2022-12-04T23:59:15.630Z,97.8
